GMME/RBA METAR and TAF weather

Enter ICAO airport designator
Station Type Date Time Source
GMME METAR 2019/06/20 07:00 UTC NOAA

GMME 200700Z 14004KT 6000 SCT013 BKN020 17/16 Q1017 NOSIG


Station Type Date Time Source
GMME Decoded METAR 2019/06/20 07:00 UTC NOAA

Rabat-Sale, Morocco (GMME) 34-03N 006-46W 75M
Jun 20, 2019 - 03:00 AM EDT / 2019.06.20 0700 UTC
Wind: from the SE (140 degrees) at 5 MPH (4 KT):0
Visibility: 3 mile(s):0
Sky conditions: mostly cloudy
Temperature: 62 F (17 C)
Dew Point: 60 F (16 C)
Relative Humidity: 93%
Pressure (altimeter): 30.03 in. Hg (1017 hPa)
ob: GMME 200700Z 14004KT 6000 SCT013 BKN020 17/16 Q1017 NOSIG
cycle: 7

Station Type Date Time Source
GMME TAF 2019/06/20 06:30 UTC NOAA

TAF TAF GMME 200500Z 2006/2112 VRB02KT 6000 SCT013 BKN020
TEMPO 2010/2018 32010KT 9999 SCT020

Example: see airport list